Time;durP1;ratioP1;P1;durP2;ratioP2;P2;SDS_P1;SDS_P2;PMS_P1;PMS_P2;Temp;Humidity;BMP_temperature;BMP_pressure;BME280_temperature;BME280_humidity;BME280_pressure;Samples;Min_cycle;Max_cycle;Signal;HPM_P1;HPM_P2
2021/05/13 00:00:19;;;;;;;5.80;3.67;;;12.60;99.90;;;;;;5011965;28;20830;-70
2021/05/13 00:02:47;;;;;;;5.83;4.80;;;12.60;99.90;;;;;;5010732;28;20445;-69
2021/05/13 00:05:15;;;;;;;5.60;4.40;;;12.60;99.90;;;;;;5010824;28;20443;-69
2021/05/13 00:07:43;;;;;;;9.13;5.00;;;12.60;99.90;;;;;;5010666;28;20400;-70
2021/05/13 00:10:16;;;;;;;6.87;6.00;;;12.60;99.90;;;;;;5010712;28;20499;-71
2021/05/13 00:12:49;;;;;;;5.93;4.20;;;12.60;99.90;;;;;;5010326;28;20507;-69
2021/05/13 00:15:20;;;;;;;6.93;4.33;;;12.50;99.90;;;;;;5010767;28;20404;-70
2021/05/13 00:17:49;;;;;;;9.60;7.03;;;12.50;99.90;;;;;;5010574;28;20498;-70
2021/05/13 00:20:20;;;;;;;6.50;5.13;;;12.50;99.90;;;;;;5010481;28;20438;-70
2021/05/13 00:22:48;;;;;;;6.30;5.60;;;12.50;99.90;;;;;;5009216;28;20472;-71
2021/05/13 00:25:18;;;;;;;10.93;5.30;;;12.40;99.90;;;;;;5010235;28;20899;-70
2021/05/13 00:27:46;;;;;;;8.30;6.17;;;12.40;99.90;;;;;;5010575;28;20471;-69
2021/05/13 00:30:15;;;;;;;7.87;5.60;;;12.40;99.90;;;;;;5009481;28;20933;-69
2021/05/13 00:32:43;;;;;;;4.83;4.00;;;12.40;99.90;;;;;;5010372;28;20427;-70
2021/05/13 00:35:12;;;;;;;5.80;4.77;;;12.30;99.90;;;;;;5010353;28;20792;-69
2021/05/13 00:37:41;;;;;;;6.70;5.27;;;12.30;99.90;;;;;;5010601;28;20755;-70
2021/05/13 00:40:11;;;;;;;10.40;5.97;;;12.30;99.90;;;;;;5010251;28;20773;-69
2021/05/13 00:42:40;;;;;;;6.77;5.10;;;12.30;99.90;;;;;;5009807;28;20437;-70
2021/05/13 00:45:10;;;;;;;6.80;5.03;;;12.30;99.90;;;;;;5010397;28;20443;-69
2021/05/13 00:47:45;;;;;;;5.40;4.17;;;12.30;99.90;;;;;;5010386;28;20433;-69
2021/05/13 00:50:14;;;;;;;6.07;4.77;;;12.20;99.90;;;;;;5010241;28;20433;-69
2021/05/13 00:52:42;;;;;;;5.80;4.23;;;12.20;99.90;;;;;;5010755;28;20973;-68
2021/05/13 00:55:11;;;;;;;5.63;4.40;;;12.20;99.90;;;;;;5009176;28;20412;-68
2021/05/13 00:57:42;;;;;;;9.40;5.03;;;12.10;99.90;;;;;;5010413;28;20431;-69
2021/05/13 01:00:31;;;;;;;6.73;3.67;;;11.90;99.90;;;;;;5010668;28;20408;-68
2021/05/13 01:02:59;;;;;;;5.47;4.00;;;11.90;99.90;;;;;;5010364;28;20523;-67
2021/05/13 01:05:28;;;;;;;5.00;3.57;;;11.70;99.90;;;;;;5013649;28;20494;-69
2021/05/13 01:07:59;;;;;;;5.10;3.90;;;11.70;99.90;;;;;;5014882;28;20819;-69
2021/05/13 01:10:28;;;;;;;7.70;3.93;;;11.60;99.90;;;;;;5014396;28;20396;-69
2021/05/13 01:12:59;;;;;;;4.93;4.03;;;11.60;99.90;;;;;;5014452;28;20423;-69
2021/05/13 01:15:36;;;;;;;3.90;3.07;;;11.60;99.90;;;;;;5015039;28;20430;-69
2021/05/13 01:18:08;;;;;;;6.77;4.53;;;11.60;99.90;;;;;;5013537;28;20835;-69
2021/05/13 01:20:36;;;;;;;10.10;4.20;;;11.60;99.90;;;;;;5014495;28;20945;-69
2021/05/13 01:23:08;;;;;;;7.13;4.23;;;11.50;99.90;;;;;;5015028;28;20415;-69
2021/05/13 01:25:43;;;;;;;7.53;4.07;;;11.50;99.90;;;;;;5014283;28;20443;-70
2021/05/13 01:28:11;;;;;;;6.63;3.47;;;11.50;99.90;;;;;;5014507;28;20417;-68
2021/05/13 01:30:38;;;;;;;6.97;4.60;;;11.50;99.90;;;;;;5014148;28;20472;-71
2021/05/13 01:33:06;;;;;;;8.02;4.93;;;11.50;99.90;;;;;;5014166;28;20415;-70
2021/05/13 01:35:34;;;;;;;5.93;5.20;;;11.40;99.90;;;;;;5012855;28;20194;-71
2021/05/13 01:38:07;;;;;;;7.10;4.73;;;11.40;99.90;;;;;;5013444;28;20664;-69
2021/05/13 01:40:36;;;;;;;5.70;4.97;;;11.40;99.90;;;;;;5014386;28;20876;-69
2021/05/13 01:43:04;;;;;;;5.03;3.63;;;11.40;99.90;;;;;;5013904;28;20444;-72
2021/05/13 01:45:32;;;;;;;6.35;5.22;;;11.40;99.90;;;;;;5012602;28;20436;-70
2021/05/13 01:48:05;;;;;;;7.65;4.70;;;11.30;99.90;;;;;;5012507;28;20685;-69
2021/05/13 01:50:33;;;;;;;9.20;4.93;;;11.30;99.90;;;;;;5012638;28;20719;-68
2021/05/13 01:53:05;;;;;;;9.15;6.07;;;11.30;99.90;;;;;;5013678;28;20419;-68
2021/05/13 01:55:35;;;;;;;5.93;4.57;;;11.20;99.90;;;;;;5014083;28;20194;-69
2021/05/13 01:58:03;;;;;;;9.30;4.80;;;11.20;99.90;;;;;;5014011;28;20486;-69
2021/05/13 02:00:32;;;;;;;6.28;4.75;;;11.20;99.90;;;;;;5014025;28;20417;-70
2021/05/13 02:03:00;;;;;;;6.93;4.22;;;11.20;99.90;;;;;;5013830;28;20267;-70
2021/05/13 02:05:28;;;;;;;6.82;4.60;;;11.10;99.90;;;;;;5013416;28;20221;-70
2021/05/13 02:07:56;;;;;;;9.27;3.95;;;11.20;99.90;;;;;;5013677;28;20196;-70
2021/05/13 02:10:24;;;;;;;16.70;5.60;;;11.10;99.90;;;;;;5013379;28;20183;-70
2021/05/13 02:12:56;;;;;;;6.63;4.30;;;11.10;99.90;;;;;;5013493;28;21223;-69
2021/05/13 02:15:24;;;;;;;10.00;4.37;;;11.10;99.90;;;;;;5012592;28;20500;-70
2021/05/13 02:17:53;;;;;;;5.23;4.00;;;11.10;99.90;;;;;;5013518;28;20461;-70
2021/05/13 02:20:23;;;;;;;8.80;4.87;;;11.10;99.90;;;;;;5033694;22;20912;-67
2021/05/13 02:22:51;;;;;;;8.60;5.60;;;11.10;99.90;;;;;;5033261;28;20863;-68
2021/05/13 02:25:19;;;;;;;4.70;4.30;;;11.10;99.90;;;;;;5033208;28;20338;-67
2021/05/13 02:27:47;;;;;;;7.30;4.65;;;11.10;99.90;;;;;;5033221;28;20415;-67
2021/05/13 02:30:16;;;;;;;8.20;4.65;;;11.10;99.90;;;;;;5033303;28;20654;-67
2021/05/13 02:32:43;;;;;;;10.70;6.65;;;11.00;99.90;;;;;;5032875;28;20220;-67
2021/05/13 02:35:13;;;;;;;7.70;6.13;;;11.10;99.90;;;;;;5032794;28;20585;-68
2021/05/13 02:37:41;;;;;;;10.57;5.55;;;11.10;99.90;;;;;;5032815;28;20550;-68
2021/05/13 02:40:11;;;;;;;8.10;6.50;;;11.10;99.90;;;;;;5032821;28;20216;-68
2021/05/13 02:42:38;;;;;;;8.23;5.17;;;11.10;99.90;;;;;;5032669;28;20447;-68
2021/05/13 02:45:08;;;;;;;12.70;5.60;;;11.00;99.90;;;;;;5032693;28;20427;-68
2021/05/13 02:47:36;;;;;;;8.52;5.88;;;11.10;99.90;;;;;;5032670;28;20210;-68
2021/05/13 02:50:06;;;;;;;9.80;5.57;;;11.10;99.90;;;;;;5031488;28;20678;-68
2021/05/13 02:52:34;;;;;;;7.32;5.63;;;11.10;99.90;;;;;;5032284;28;20847;-68
2021/05/13 02:55:02;;;;;;;8.40;5.03;;;11.10;99.90;;;;;;5032359;28;20205;-68
2021/05/13 02:57:30;;;;;;;12.88;6.13;;;11.10;99.90;;;;;;5032959;28;20586;-67
2021/05/13 03:00:03;;;;;;;12.13;5.50;;;11.10;99.90;;;;;;5032163;28;20177;-67
2021/05/13 03:02:31;;;;;;;7.95;5.68;;;11.10;99.90;;;;;;5032176;28;20205;-67
2021/05/13 03:05:00;;;;;;;13.10;6.10;;;11.10;99.90;;;;;;5032366;28;20533;-66
2021/05/13 03:07:28;;;;;;;7.57;5.70;;;11.10;99.90;;;;;;5032292;28;20406;-68
2021/05/13 03:09:58;;;;;;;9.82;6.47;;;11.00;99.90;;;;;;5032614;28;20654;-68
2021/05/13 03:12:25;;;;;;;10.65;5.25;;;11.00;99.90;;;;;;5031954;28;20296;-67
2021/05/13 03:14:53;;;;;;;10.23;5.60;;;11.10;99.90;;;;;;5031842;28;20616;-67
2021/05/13 03:17:21;;;;;;;6.75;4.97;;;11.10;99.90;;;;;;5031995;28;20452;-67
2021/05/13 03:19:52;;;;;;;7.88;4.28;;;11.10;99.90;;;;;;5032078;28;20762;-67
2021/05/13 03:22:21;;;;;;;8.52;5.20;;;11.00;99.90;;;;;;5031796;28;20275;-67
2021/05/13 03:24:51;;;;;;;9.23;4.63;;;11.10;99.90;;;;;;5032087;28;20630;-66
2021/05/13 03:27:39;;;;;;;7.10;5.30;;;11.10;99.90;;;;;;5030516;28;20200;-67
2021/05/13 03:30:08;;;;;;;6.20;4.70;;;11.10;99.90;;;;;;5032026;28;20475;-67
2021/05/13 03:32:36;;;;;;;6.50;4.25;;;11.10;99.90;;;;;;5032098;28;20436;-67
2021/05/13 03:35:05;;;;;;;6.33;5.33;;;11.10;99.90;;;;;;5031969;28;20190;-68
2021/05/13 03:37:34;;;;;;;8.60;5.10;;;11.10;99.90;;;;;;5032294;28;20423;-68
2021/05/13 03:40:02;;;;;;;6.10;4.15;;;11.20;99.90;;;;;;5032221;28;20197;-67
2021/05/13 03:42:29;;;;;;;6.95;4.70;;;11.10;99.90;;;;;;5031648;28;20249;-68
2021/05/13 03:44:57;;;;;;;6.38;5.45;;;11.10;99.90;;;;;;5031515;28;20573;-67
2021/05/13 03:47:25;;;;;;;9.18;5.35;;;11.10;99.90;;;;;;5031833;28;20185;-67
2021/05/13 03:49:52;;;;;;;8.20;5.35;;;11.20;99.90;;;;;;5031664;28;20188;-68
2021/05/13 03:52:20;;;;;;;5.93;5.20;;;11.10;99.90;;;;;;5031444;28;20463;-67
2021/05/13 03:54:49;;;;;;;7.35;4.90;;;11.10;99.90;;;;;;5031740;28;20431;-66
2021/05/13 03:57:16;;;;;;;6.57;4.40;;;11.10;99.90;;;;;;5031606;28;20516;-67
2021/05/13 03:59:44;;;;;;;10.02;5.45;;;11.10;99.90;;;;;;5031504;28;20412;-69
2021/05/13 04:02:24;;;;;;;8.70;5.73;;;11.20;99.90;;;;;;5031430;28;20220;-66
2021/05/13 04:04:52;;;;;;;10.17;4.17;;;11.20;99.90;;;;;;5031527;28;20917;-68
2021/05/13 04:07:20;;;;;;;7.13;6.07;;;11.20;99.90;;;;;;5031263;28;20383;-68
2021/05/13 04:09:49;;;;;;;5.60;3.97;;;11.20;99.90;;;;;;5031418;28;20490;-68
2021/05/13 04:12:16;;;;;;;13.13;5.72;;;11.20;99.90;;;;;;5031283;28;20201;-67
2021/05/13 04:14:44;;;;;;;8.20;5.57;;;11.20;99.90;;;;;;5031053;28;20194;-67
2021/05/13 04:17:12;;;;;;;7.03;4.77;;;11.30;99.90;;;;;;5031513;28;20437;-67
2021/05/13 04:19:39;;;;;;;6.67;4.57;;;11.30;99.90;;;;;;5030933;28;20911;-67
2021/05/13 04:22:07;;;;;;;9.37;4.73;;;11.30;99.90;;;;;;5030849;28;20438;-68
2021/05/13 04:24:35;;;;;;;7.40;5.17;;;11.30;99.90;;;;;;5031017;28;20412;-68
2021/05/13 04:27:04;;;;;;;9.97;5.97;;;11.30;99.90;;;;;;5030797;28;20389;-68
2021/05/13 04:29:31;;;;;;;6.10;5.10;;;11.40;99.90;;;;;;5030512;28;20424;-68
2021/05/13 04:31:59;;;;;;;6.43;5.03;;;11.40;99.90;;;;;;5030490;28;20447;-69
2021/05/13 04:34:27;;;;;;;5.93;5.17;;;11.40;99.90;;;;;;5030666;28;20426;-67
2021/05/13 04:36:54;;;;;;;10.00;6.10;;;11.40;99.90;;;;;;5030391;28;20443;-67
2021/05/13 04:39:23;;;;;;;8.63;4.57;;;11.40;99.90;;;;;;5030371;28;20477;-67
2021/05/13 04:41:51;;;;;;;10.53;6.20;;;11.40;99.90;;;;;;5030537;28;20412;-67
2021/05/13 04:44:20;;;;;;;5.47;4.30;;;11.40;99.90;;;;;;5030617;28;20424;-67
2021/05/13 04:46:49;;;;;;;6.73;4.40;;;11.40;99.90;;;;;;5030545;28;20401;-67
2021/05/13 04:49:17;;;;;;;6.80;4.87;;;11.40;99.90;;;;;;5030391;28;20494;-67
2021/05/13 04:51:47;;;;;;;6.40;5.10;;;11.40;99.90;;;;;;5030487;28;20765;-67
2021/05/13 04:54:16;;;;;;;11.77;4.90;;;11.40;99.90;;;;;;5030392;28;20473;-67
2021/05/13 04:56:43;;;;;;;10.53;4.23;;;11.40;99.90;;;;;;5029060;28;20460;-67
2021/05/13 04:59:11;;;;;;;8.47;5.47;;;11.40;99.90;;;;;;5030470;28;20481;-67
2021/05/13 05:01:40;;;;;;;16.83;5.03;;;11.40;99.90;;;;;;5030407;28;20939;-67
2021/05/13 05:04:07;;;;;;;7.00;4.97;;;11.50;99.90;;;;;;5030472;28;20455;-67
2021/05/13 05:06:35;;;;;;;8.80;5.57;;;11.50;99.90;;;;;;5030531;28;20390;-67
2021/05/13 05:09:05;;;;;;;10.03;5.07;;;11.50;99.90;;;;;;5030501;28;20421;-67
2021/05/13 05:11:33;;;;;;;11.10;5.73;;;11.50;99.90;;;;;;5030431;28;20443;-67
2021/05/13 05:14:02;;;;;;;10.20;4.73;;;11.50;99.90;;;;;;5030164;28;20419;-68
2021/05/13 05:16:29;;;;;;;9.13;5.50;;;11.50;99.90;;;;;;5030518;28;20518;-66
2021/05/13 05:18:58;;;;;;;7.97;6.10;;;11.50;99.90;;;;;;5031501;28;20390;-66
2021/05/13 05:21:26;;;;;;;5.63;4.60;;;11.50;99.90;;;;;;5031511;28;20994;-67
2021/05/13 05:23:53;;;;;;;8.77;5.10;;;11.50;99.90;;;;;;5030317;28;20446;-67
2021/05/13 05:26:21;;;;;;;4.97;4.17;;;11.50;99.90;;;;;;5030442;28;20789;-67
2021/05/13 05:28:49;;;;;;;7.50;5.20;;;11.60;99.90;;;;;;5029918;28;20436;-68
2021/05/13 05:31:16;;;;;;;7.25;4.93;;;11.50;99.90;;;;;;5029877;28;20402;-68
2021/05/13 05:33:44;;;;;;;5.00;4.20;;;11.50;99.90;;;;;;5028494;28;20646;-67
2021/05/13 05:36:12;;;;;;;7.10;4.50;;;11.50;99.90;;;;;;5029974;28;20457;-68
2021/05/13 05:38:40;;;;;;;7.30;4.07;;;11.60;99.90;;;;;;5029924;28;20386;-67
2021/05/13 05:41:08;;;;;;;8.93;5.87;;;11.60;99.90;;;;;;5030032;28;20435;-67
2021/05/13 05:43:35;;;;;;;5.80;3.90;;;11.60;99.90;;;;;;5029716;28;20825;-67
2021/05/13 05:46:03;;;;;;;7.57;4.53;;;11.60;99.90;;;;;;5030142;28;20408;-67
2021/05/13 05:48:31;;;;;;;5.30;3.87;;;11.60;99.90;;;;;;5030169;28;20429;-68
2021/05/13 05:50:59;;;;;;;10.53;4.40;;;11.60;99.90;;;;;;5031177;28;20411;-67
2021/05/13 05:53:28;;;;;;;6.50;4.80;;;11.70;99.90;;;;;;5034029;28;20824;-67
2021/05/13 05:55:56;;;;;;;7.20;4.13;;;11.70;99.90;;;;;;5034302;28;20458;-67
2021/05/13 05:58:23;;;;;;;8.20;4.70;;;11.70;99.90;;;;;;5034346;28;20394;-68
2021/05/13 06:00:51;;;;;;;6.80;5.10;;;11.70;99.90;;;;;;5034611;28;20409;-68
2021/05/13 06:03:20;;;;;;;5.43;4.27;;;11.70;99.90;;;;;;5034572;28;20838;-68
2021/05/13 06:05:48;;;;;;;4.27;3.30;;;11.70;99.90;;;;;;5034412;28;20420;-68
2021/05/13 06:08:16;;;;;;;5.33;3.83;;;11.70;99.90;;;;;;5034454;28;20408;-67
2021/05/13 06:10:45;;;;;;;6.13;4.07;;;11.80;99.90;;;;;;5034051;28;20406;-68
2021/05/13 06:13:12;;;;;;;4.80;3.80;;;11.70;99.90;;;;;;5033344;28;20425;-67
2021/05/13 06:15:40;;;;;;;4.65;3.60;;;11.80;99.90;;;;;;5033370;28;20459;-67
2021/05/13 06:18:08;;;;;;;6.80;5.30;;;11.80;99.90;;;;;;5031881;28;20284;-67
2021/05/13 06:20:36;;;;;;;4.00;2.70;;;11.90;99.90;;;;;;5031665;28;20855;-67
2021/05/13 06:23:04;;;;;;;3.63;2.97;;;11.90;99.90;;;;;;5033034;28;20460;-66
2021/05/13 06:25:32;;;;;;;4.17;2.57;;;11.90;99.90;;;;;;5031572;28;20780;-67
2021/05/13 06:28:01;;;;;;;6.13;3.60;;;12.00;99.90;;;;;;5032830;28;20387;-67
2021/05/13 06:30:28;;;;;;;5.97;4.03;;;12.10;99.90;;;;;;5033236;28;20412;-68
2021/05/13 06:32:56;;;;;;;6.97;4.70;;;12.00;99.90;;;;;;5032505;28;20414;-68
2021/05/13 06:35:23;;;;;;;5.93;4.30;;;11.90;99.90;;;;;;5031630;28;20411;-68
2021/05/13 06:37:51;;;;;;;4.67;3.50;;;11.90;99.90;;;;;;5032975;28;20421;-68
2021/05/13 06:40:19;;;;;;;7.83;5.97;;;11.90;99.90;;;;;;5033002;28;20482;-68
2021/05/13 06:42:47;;;;;;;11.07;10.07;;;11.90;99.90;;;;;;5032690;28;20407;-68
2021/05/13 06:45:17;;;;;;;9.07;5.37;;;11.90;99.90;;;;;;5032672;28;20847;-66
2021/05/13 06:47:44;;;;;;;6.80;4.20;;;11.90;99.90;;;;;;5032391;28;20446;-68
2021/05/13 06:50:13;;;;;;;6.73;5.83;;;12.00;99.90;;;;;;5032724;28;20399;-66
2021/05/13 06:52:41;;;;;;;8.30;7.50;;;12.00;99.90;;;;;;5033793;28;20440;-68
2021/05/13 06:55:09;;;;;;;9.10;5.00;;;12.00;99.90;;;;;;5031914;28;20432;-67
2021/05/13 06:57:37;;;;;;;5.10;4.43;;;11.90;99.90;;;;;;5032756;28;20544;-67
2021/05/13 07:00:06;;;;;;;6.80;4.70;;;11.80;99.90;;;;;;5031072;28;20410;-67
2021/05/13 07:02:35;;;;;;;6.67;4.43;;;11.80;99.90;;;;;;5032213;28;20907;-67
2021/05/13 07:05:04;;;;;;;7.93;5.23;;;11.80;99.90;;;;;;5032525;28;20394;-67
2021/05/13 07:07:34;;;;;;;8.17;4.93;;;11.80;99.90;;;;;;5032460;28;20782;-67
2021/05/13 07:10:03;;;;;;;6.50;5.80;;;11.70;99.90;;;;;;5032448;28;20806;-67
2021/05/13 07:12:30;;;;;;;6.73;5.37;;;11.60;99.90;;;;;;5032229;28;20816;-67
2021/05/13 07:15:01;;;;;;;7.00;5.10;;;11.50;99.90;;;;;;5032180;28;20391;-68
2021/05/13 07:17:29;;;;;;;6.93;6.03;;;11.50;99.90;;;;;;5031765;28;20459;-68
2021/05/13 07:19:57;;;;;;;8.13;6.93;;;11.60;99.90;;;;;;5031901;28;21012;-67
2021/05/13 07:22:25;;;;;;;7.20;5.50;;;11.50;99.90;;;;;;5031791;28;20430;-67
2021/05/13 07:24:53;;;;;;;11.00;7.50;;;11.50;99.90;;;;;;5032317;28;20658;-67
2021/05/13 07:27:21;;;;;;;6.13;5.33;;;11.50;99.90;;;;;;5032874;28;20409;-68
2021/05/13 07:29:48;;;;;;;7.97;6.67;;;11.60;99.90;;;;;;5031736;28;20416;-67
2021/05/13 07:32:16;;;;;;;11.10;5.57;;;11.50;99.90;;;;;;5030172;28;20451;-68
2021/05/13 07:34:44;;;;;;;6.93;5.80;;;11.50;99.90;;;;;;5031777;28;20419;-67
2021/05/13 07:37:12;;;;;;;5.77;5.23;;;11.50;99.90;;;;;;5031376;28;20443;-67
2021/05/13 07:39:40;;;;;;;5.55;4.85;;;11.50;99.90;;;;;;5031558;28;20456;-67
2021/05/13 07:42:08;;;;;;;8.93;5.27;;;11.50;99.90;;;;;;5031242;28;20209;-67
2021/05/13 07:44:36;;;;;;;4.77;4.27;;;11.60;99.90;;;;;;5031288;28;20416;-67
2021/05/13 07:47:03;;;;;;;7.77;5.70;;;11.50;99.90;;;;;;5031454;28;20414;-67
2021/05/13 07:49:33;;;;;;;11.57;7.13;;;11.50;99.90;;;;;;5031631;28;20923;-66
2021/05/13 07:52:01;;;;;;;8.07;6.07;;;11.50;99.90;;;;;;5031056;28;20415;-68
2021/05/13 07:54:29;;;;;;;8.53;5.57;;;11.50;99.90;;;;;;5032862;28;20387;-68
2021/05/13 07:56:57;;;;;;;7.77;5.47;;;11.50;99.90;;;;;;5031559;28;20452;-67
2021/05/13 07:59:25;;;;;;;7.70;6.40;;;11.50;99.90;;;;;;5031205;28;20451;-67
2021/05/13 08:01:53;;;;;;;9.30;5.60;;;11.50;99.90;;;;;;5030942;28;20383;-67
2021/05/13 08:04:21;;;;;;;5.53;5.00;;;11.60;99.90;;;;;;5030991;28;20410;-66
2021/05/13 08:06:49;;;;;;;8.43;5.67;;;11.60;99.90;;;;;;5031017;28;20431;-66
2021/05/13 08:09:17;;;;;;;9.97;5.90;;;11.70;99.90;;;;;;5031073;28;20387;-67
2021/05/13 08:11:45;;;;;;;9.50;7.67;;;11.70;99.90;;;;;;5030898;28;20478;-68
2021/05/13 08:14:13;;;;;;;8.97;7.30;;;11.80;99.90;;;;;;5030185;28;20462;-68
2021/05/13 08:16:41;;;;;;;10.23;6.97;;;11.70;99.90;;;;;;5030817;28;20460;-68
2021/05/13 08:19:09;;;;;;;9.80;7.90;;;11.60;99.90;;;;;;5031092;28;20478;-68
2021/05/13 08:21:36;;;;;;;8.03;6.43;;;11.50;99.90;;;;;;5030904;28;20425;-68
2021/05/13 08:24:05;;;;;;;7.50;5.80;;;11.50;99.90;;;;;;5030900;28;20390;-67
2021/05/13 08:26:32;;;;;;;11.95;5.30;;;11.40;99.90;;;;;;5031028;28;20478;-67
2021/05/13 08:29:01;;;;;;;9.23;5.07;;;11.40;99.90;;;;;;5031094;28;20169;-67
2021/05/13 08:31:29;;;;;;;7.77;6.40;;;11.40;99.90;;;;;;5031022;28;20383;-67
2021/05/13 08:33:57;;;;;;;9.93;6.93;;;11.40;99.90;;;;;;5030725;28;20433;-68
2021/05/13 08:36:24;;;;;;;7.80;5.00;;;11.40;99.90;;;;;;5030847;28;20437;-68
2021/05/13 08:38:52;;;;;;;6.60;5.37;;;11.30;99.90;;;;;;5029753;28;20426;-66
2021/05/13 08:41:20;;;;;;;9.70;6.13;;;11.30;99.90;;;;;;5030993;28;20417;-66
2021/05/13 08:43:51;;;;;;;6.30;4.10;;;11.30;99.90;;;;;;5031189;28;20414;-67
2021/05/13 08:46:21;;;;;;;5.03;4.07;;;11.30;99.90;;;;;;5031038;28;20418;-68
2021/05/13 08:48:50;;;;;;;5.07;3.30;;;11.30;99.90;;;;;;5029869;28;20471;-66
2021/05/13 08:51:18;;;;;;;7.67;4.93;;;11.30;99.90;;;;;;5031147;28;20426;-66
2021/05/13 08:53:50;;;;;;;6.90;4.37;;;11.30;99.90;;;;;;5029433;28;20471;-68
2021/05/13 08:56:18;;;;;;;5.63;3.50;;;11.30;99.90;;;;;;5030887;28;20402;-66
2021/05/13 08:58:45;;;;;;;7.17;2.73;;;11.20;99.90;;;;;;5031880;28;20413;-67
2021/05/13 09:01:14;;;;;;;5.67;4.20;;;11.10;99.90;;;;;;5030149;28;20424;-67
2021/05/13 09:03:45;;;;;;;5.50;4.07;;;11.20;99.90;;;;;;5030276;28;20440;-67
2021/05/13 09:06:23;;;;;;;8.93;4.67;;;11.20;99.90;;;;;;5031177;28;20387;-68
2021/05/13 09:08:50;;;;;;;6.68;4.15;;;11.10;99.90;;;;;;5030734;28;20826;-68
2021/05/13 09:11:18;;;;;;;7.43;5.23;;;11.10;99.90;;;;;;5030376;28;20228;-67
2021/05/13 09:13:59;;;;;;;26.00;15.57;;;11.10;99.90;;;;;;5030390;28;20427;-67
2021/05/13 09:16:31;;;;;;;13.23;8.52;;;11.10;99.90;;;;;;5030370;28;20400;-67
2021/05/13 09:19:00;;;;;;;6.55;5.95;;;11.10;99.90;;;;;;5030492;28;20192;-68
2021/05/13 09:21:27;;;;;;;14.00;10.17;;;11.30;99.90;;;;;;5030138;28;20674;-67
2021/05/13 09:23:55;;;;;;;7.03;4.53;;;11.20;99.90;;;;;;5030170;28;20439;-68
2021/05/13 09:26:23;;;;;;;7.65;4.03;;;11.10;99.90;;;;;;5033274;28;20782;-69
2021/05/13 09:29:09;;;;;;;5.27;4.07;;;11.10;99.90;;;;;;5034045;28;20189;-68
2021/05/13 09:31:39;;;;;;;6.60;4.93;;;11.10;99.90;;;;;;5033980;28;20412;-68
2021/05/13 09:34:09;;;;;;;7.03;5.13;;;11.10;99.90;;;;;;5034162;28;20441;-67
2021/05/13 09:36:38;;;;;;;10.48;5.50;;;11.10;99.90;;;;;;5033445;28;20201;-67
2021/05/13 09:39:22;;;;;;;8.23;5.30;;;11.10;99.90;;;;;;5034385;28;20588;-67
2021/05/13 09:41:58;;;;;;;6.28;4.07;;;11.10;99.90;;;;;;5033960;28;20537;-68
2021/05/13 09:44:34;;;;;;;5.97;5.38;;;11.10;99.90;;;;;;5033677;28;20181;-69
2021/05/13 09:47:16;;;;;;;6.07;4.30;;;11.10;99.90;;;;;;5034117;28;20657;-68
2021/05/13 09:49:59;;;;;;;8.73;4.53;;;11.10;99.90;;;;;;5033974;28;20780;-68
2021/05/13 09:52:48;;;;;;;5.97;4.13;;;11.10;99.90;;;;;;5033563;28;20505;-68
2021/05/13 09:55:18;;;;;;;5.55;3.70;;;11.10;99.90;;;;;;5032203;28;20424;-69
2021/05/13 09:57:55;;;;;;;6.07;4.90;;;11.10;99.90;;;;;;5034012;28;20281;-67
2021/05/13 10:00:37;;;;;;;5.73;4.43;;;11.10;99.90;;;;;;5033804;28;20406;-69
2021/05/13 10:03:09;;;;;;;10.20;6.27;;;11.20;99.90;;;;;;5033944;28;20482;-69
2021/05/13 10:05:39;;;;;;;8.50;6.07;;;11.20;99.90;;;;;;5032326;28;20824;-70
2021/05/13 10:08:07;;;;;;;8.57;5.15;;;11.10;99.90;;;;;;5037346;28;20486;-68
2021/05/13 10:10:38;;;;;;;7.60;5.67;;;11.10;99.90;;;;;;5034940;28;20177;-69
2021/05/13 10:13:07;;;;;;;8.67;6.57;;;11.20;99.90;;;;;;5034245;28;20451;-69
2021/05/13 10:15:38;;;;;;;6.67;6.00;;;11.10;99.90;;;;;;5025902;28;21158;-69
2021/05/13 10:18:24;;;;;;;9.93;6.00;;;11.10;99.90;;;;;;5013575;28;20554;-70
2021/05/13 10:20:57;;;;;;;9.70;5.90;;;11.20;99.90;;;;;;5013633;28;20441;-67
2021/05/13 10:23:26;;;;;;;5.77;4.63;;;11.20;99.90;;;;;;5022912;28;20410;-69
2021/05/13 10:25:53;;;;;;;8.70;4.90;;;11.20;99.90;;;;;;5020990;28;20434;-69
2021/05/13 10:28:28;;;;;;;7.30;4.43;;;11.20;99.90;;;;;;5018102;28;20752;-69
2021/05/13 10:31:04;;;;;;;5.90;4.20;;;11.20;99.90;;;;;;5013009;28;20454;-68
2021/05/13 10:33:47;;;;;;;5.07;4.53;;;11.30;99.90;;;;;;5012516;28;20411;-69
2021/05/13 10:36:21;;;;;;;7.77;5.27;;;11.40;99.90;;;;;;5050245;28;20394;-68
2021/05/13 10:38:53;;;;;;;10.40;6.47;;;11.40;99.90;;;;;;5051860;28;20466;-68
2021/05/13 10:41:41;;;;;;;7.23;5.80;;;11.50;99.90;;;;;;5051873;28;20484;-70
2021/05/13 10:44:38;;;;;;;5.83;4.47;;;11.60;99.90;;;;;;5051921;28;20404;-68
2021/05/13 10:47:10;;;;;;;7.43;5.70;;;11.70;99.90;;;;;;5013057;28;20414;-69
2021/05/13 10:49:49;;;;;;;7.87;5.90;;;11.80;99.90;;;;;;5022106;28;20434;-68
2021/05/13 10:52:36;;;;;;;7.33;4.90;;;12.10;99.90;;;;;;5014897;28;20445;-69
2021/05/13 10:55:07;;;;;;;16.20;8.43;;;12.20;99.90;;;;;;5024857;28;20415;-69
2021/05/13 10:57:51;;;;;;;7.90;5.40;;;12.40;99.90;;;;;;5033727;28;20794;-68
2021/05/13 11:00:27;;;;;;;9.50;5.10;;;12.50;99.90;;;;;;5033154;28;20415;-69
2021/05/13 11:02:55;;;;;;;5.63;3.73;;;12.60;99.90;;;;;;5032062;28;20536;-69
2021/05/13 11:05:39;;;;;;;6.23;4.60;;;12.40;99.90;;;;;;5034153;28;20419;-69
2021/05/13 11:08:29;;;;;;;5.00;3.60;;;12.50;99.90;;;;;;5035012;28;20399;-68
2021/05/13 11:10:59;;;;;;;4.47;2.97;;;12.40;99.90;;;;;;5035251;28;20387;-69
2021/05/13 11:13:46;;;;;;;4.97;2.83;;;12.30;99.90;;;;;;5034596;28;20444;-68
2021/05/13 11:16:46;;;;;;;5.73;3.50;;;12.10;99.90;;;;;;5019250;28;20487;-69
2021/05/13 11:19:16;;;;;;;2.93;2.63;;;12.00;99.90;;;;;;5018453;28;20513;-68
2021/05/13 11:22:02;;;;;;;5.77;3.17;;;11.90;99.90;;;;;;5020083;28;20437;-70
2021/05/13 11:24:36;;;;;;;4.40;3.17;;;11.90;99.90;;;;;;5044550;28;20929;-69
2021/05/13 11:27:05;;;;;;;5.03;3.97;;;11.80;99.90;;;;;;5031814;28;20426;-70
2021/05/13 11:29:43;;;;;;;9.57;3.57;;;11.80;99.90;;;;;;5031761;28;20402;-70
2021/05/13 11:32:13;;;;;;;4.43;4.03;;;11.80;99.90;;;;;;5030249;28;20463;-68
2021/05/13 11:34:45;;;;;;;7.07;3.53;;;11.70;99.90;;;;;;5031326;28;20387;-68
2021/05/13 11:37:35;;;;;;;6.87;4.03;;;11.70;99.90;;;;;;5031120;28;20430;-68
2021/05/13 11:40:23;;;;;;;6.50;4.70;;;11.70;99.90;;;;;;5031584;28;21141;-68
2021/05/13 11:43:12;;;;;;;5.37;3.83;;;11.70;99.90;;;;;;5031063;28;20454;-70
2021/05/13 11:45:40;;;;;;;9.00;4.93;;;11.80;99.90;;;;;;5031492;28;20409;-68
2021/05/13 11:48:26;;;;;;;5.77;4.53;;;11.80;99.90;;;;;;5031632;28;20757;-68
2021/05/13 11:50:55;;;;;;;5.83;3.93;;;11.80;99.90;;;;;;5031426;28;20438;-69
2021/05/13 11:53:24;;;;;;;4.80;3.93;;;11.60;99.90;;;;;;5031009;28;20590;-68
2021/05/13 11:55:52;;;;;;;9.03;3.93;;;11.60;99.90;;;;;;5031177;28;20402;-69
2021/05/13 11:58:43;;;;;;;4.00;3.30;;;11.50;99.90;;;;;;5030684;28;20465;-68
2021/05/13 12:01:29;;;;;;;6.30;4.00;;;11.60;99.90;;;;;;5030918;28;20571;-68
2021/05/13 12:04:00;;;;;;;7.40;3.73;;;11.50;99.90;;;;;;5031374;28;20446;-67
2021/05/13 12:06:28;;;;;;;6.20;4.97;;;11.50;99.90;;;;;;5030328;28;20403;-67
2021/05/13 12:09:00;;;;;;;6.23;4.50;;;11.40;99.90;;;;;;5023299;28;20421;-67
2021/05/13 12:11:28;;;;;;;6.43;4.53;;;11.40;99.90;;;;;;5030695;28;20419;-67
2021/05/13 12:13:57;;;;;;;6.43;4.20;;;11.40;99.90;;;;;;5031179;28;20453;-68
2021/05/13 12:16:28;;;;;;;6.40;3.70;;;11.40;99.90;;;;;;5029838;28;20420;-67
2021/05/13 12:19:00;;;;;;;5.40;4.00;;;11.40;99.90;;;;;;5041571;28;20463;-64
2021/05/13 12:21:28;;;;;;;5.43;3.87;;;11.50;99.90;;;;;;5035713;28;20848;-65
2021/05/13 12:23:58;;;;;;;7.37;3.97;;;11.50;99.90;;;;;;5025748;28;20459;-66
2021/05/13 12:26:31;;;;;;;4.67;2.93;;;11.50;99.90;;;;;;5009383;28;20487;-66
2021/05/13 12:28:59;;;;;;;5.90;3.23;;;11.50;99.90;;;;;;5011059;28;20398;-66
2021/05/13 12:31:30;;;;;;;4.90;3.23;;;11.50;99.90;;;;;;5010225;28;20403;-66
2021/05/13 12:34:01;;;;;;;5.73;4.40;;;11.40;99.90;;;;;;5009951;28;20620;-67
2021/05/13 12:36:29;;;;;;;5.10;3.60;;;11.50;99.90;;;;;;5010275;28;20417;-67
2021/05/13 12:38:57;;;;;;;4.67;3.80;;;11.50;99.90;;;;;;5010340;28;20831;-67
2021/05/13 12:41:27;;;;;;;7.70;5.13;;;11.50;99.90;;;;;;5010702;28;20392;-66
2021/05/13 12:44:09;;;;;;;5.03;2.90;;;11.50;99.90;;;;;;5010557;28;20434;-66
2021/05/13 12:46:46;;;;;;;4.73;3.10;;;11.50;99.90;;;;;;5010574;28;20761;-66
2021/05/13 12:49:23;;;;;;;6.10;3.53;;;11.50;99.90;;;;;;5010899;28;20395;-67
2021/05/13 12:52:03;;;;;;;4.20;2.70;;;11.50;99.90;;;;;;5010461;28;20922;-66
2021/05/13 12:54:32;;;;;;;4.70;2.90;;;11.50;99.90;;;;;;5010567;28;20482;-65
2021/05/13 12:57:10;;;;;;;3.83;3.33;;;11.50;99.90;;;;;;5010822;28;20400;-65
2021/05/13 12:59:38;;;;;;;4.97;3.50;;;11.50;99.90;;;;;;5010745;28;20447;-67
2021/05/13 13:02:07;;;;;;;3.70;2.50;;;11.50;99.90;;;;;;5011665;28;20420;-68